createdAt,value
2023-01-27T00:00:25.158Z,62.76
2023-01-27T00:02:52.244Z,62.82
2023-01-27T00:05:19.053Z,62.51
2023-01-27T00:07:49.911Z,62.43
2023-01-27T00:10:17.934Z,63.04
2023-01-27T00:13:03.299Z,62.88
2023-01-27T00:15:30.830Z,62.83
2023-01-27T00:17:57.712Z,63.00
2023-01-27T00:20:42.950Z,62.60
2023-01-27T00:23:33.216Z,62.86
2023-01-27T00:26:00.588Z,62.83
2023-01-27T00:28:31.243Z,63.18
2023-01-27T00:30:58.673Z,63.01
2023-01-27T00:33:28.774Z,63.19
2023-01-27T00:36:02.807Z,62.97
2023-01-27T00:38:30.784Z,63.31
2023-01-27T00:41:15.591Z,63.43
2023-01-27T00:43:42.427Z,63.90
2023-01-27T00:46:09.128Z,63.54
2023-01-27T00:48:35.963Z,63.37
2023-01-27T00:51:03.215Z,63.53
2023-01-27T00:53:30.391Z,63.90
2023-01-27T00:55:58.281Z,64.42
2023-01-27T00:58:25.735Z,64.42
2023-01-27T01:00:56.388Z,64.90
2023-01-27T01:03:24.111Z,65.04
2023-01-27T01:05:51.383Z,65.24
2023-01-27T01:08:18.384Z,64.96
2023-01-27T01:10:45.486Z,64.87
2023-01-27T01:13:12.295Z,64.73
2023-01-27T01:15:39.782Z,64.89
2023-01-27T01:18:07.139Z,64.80
2023-01-27T01:20:38.467Z,64.48
2023-01-27T01:23:06.125Z,64.86
2023-01-27T01:25:32.887Z,64.75
2023-01-27T01:27:59.649Z,64.79
2023-01-27T01:30:27.536Z,64.74
2023-01-27T01:32:54.812Z,64.95
2023-01-27T01:35:22.468Z,65.29
2023-01-27T01:37:49.106Z,64.65
2023-01-27T01:40:15.787Z,64.81
2023-01-27T01:43:08.894Z,64.89
2023-01-27T01:45:36.707Z,64.80
2023-01-27T01:48:06.989Z,64.88
2023-01-27T01:50:35.255Z,65.07
2023-01-27T01:53:03.313Z,64.34
2023-01-27T01:55:30.617Z,64.34
2023-01-27T01:57:58.555Z,64.12
2023-01-27T02:00:25.360Z,64.81
2023-01-27T02:02:52.301Z,64.54
2023-01-27T02:05:22.193Z,64.84
2023-01-27T02:07:51.887Z,64.46
2023-01-27T02:10:18.496Z,64.46
2023-01-27T02:12:45.542Z,64.54
2023-01-27T02:15:12.701Z,64.88
2023-01-27T02:17:39.531Z,64.33
2023-01-27T02:20:24.562Z,64.40
2023-01-27T02:22:54.829Z,64.29
2023-01-27T02:25:29.429Z,64.65
2023-01-27T02:27:56.316Z,64.59
2023-01-27T02:30:22.996Z,64.96
2023-01-27T02:32:49.701Z,65.00
2023-01-27T02:35:20.403Z,64.61
2023-01-27T02:37:48.369Z,65.10
2023-01-27T02:40:15.483Z,64.62
2023-01-27T02:42:42.240Z,64.46
2023-01-27T02:45:09.173Z,64.42
2023-01-27T02:47:35.857Z,64.79
2023-01-27T02:50:02.514Z,64.75
2023-01-27T02:52:31.046Z,64.13
2023-01-27T02:54:58.440Z,64.65
2023-01-27T02:57:25.488Z,64.50
2023-01-27T03:00:09.794Z,64.77
2023-01-27T03:02:36.522Z,64.71
2023-01-27T03:05:03.262Z,64.45
2023-01-27T03:07:29.955Z,64.17
2023-01-27T03:09:56.676Z,63.91
2023-01-27T03:12:23.550Z,63.92
2023-01-27T03:15:10.877Z,63.81
2023-01-27T03:17:57.215Z,63.91
2023-01-27T03:20:24.960Z,64.07
2023-01-27T03:22:51.540Z,63.88
2023-01-27T03:25:20.912Z,64.52
2023-01-27T03:27:47.851Z,64.94
2023-01-27T03:30:37.514Z,64.75
2023-01-27T03:33:12.630Z,64.81
2023-01-27T03:36:03.562Z,64.99
2023-01-27T03:38:55.180Z,64.55
2023-01-27T03:41:40.153Z,64.64
2023-01-27T03:44:26.284Z,64.17
2023-01-27T03:46:52.945Z,64.35
2023-01-27T03:49:19.531Z,64.39
2023-01-27T03:51:46.327Z,64.35
2023-01-27T03:54:13.053Z,64.18
2023-01-27T03:56:39.708Z,63.77
2023-01-27T03:59:06.379Z,63.97
2023-01-27T04:01:33.190Z,63.79
2023-01-27T04:04:18.296Z,63.83
2023-01-27T04:07:00.881Z,64.52
2023-01-27T04:09:30.418Z,64.67
2023-01-27T04:11:59.104Z,64.75
2023-01-27T04:14:25.949Z,64.80
2023-01-27T04:16:53.872Z,64.54
2023-01-27T04:19:21.053Z,64.52
2023-01-27T04:21:48.052Z,64.63
2023-01-27T04:24:22.783Z,64.95
2023-01-27T04:26:50.988Z,64.59
2023-01-27T04:29:17.952Z,64.40
2023-01-27T04:31:44.775Z,64.06
2023-01-27T04:34:12.077Z,63.93
2023-01-27T04:36:39.157Z,63.90
2023-01-27T04:39:05.872Z,64.43
2023-01-27T04:41:33.205Z,64.35
2023-01-27T04:43:59.901Z,64.26
2023-01-27T04:46:26.543Z,64.41
2023-01-27T04:48:53.918Z,64.11
2023-01-27T04:51:20.611Z,63.50
2023-01-27T04:53:47.463Z,63.64
2023-01-27T04:56:24.631Z,63.92
2023-01-27T04:58:51.403Z,63.73
2023-01-27T05:01:18.465Z,63.57
2023-01-27T05:03:45.144Z,63.60
2023-01-27T05:06:12.272Z,63.10
2023-01-27T05:08:39.116Z,62.81
2023-01-27T05:11:06.011Z,62.83
2023-01-27T05:13:32.824Z,62.75
2023-01-27T05:16:06.796Z,62.75
2023-01-27T05:18:33.519Z,62.81
2023-01-27T05:21:01.369Z,62.67
2023-01-27T05:23:36.854Z,62.88
2023-01-27T05:26:04.578Z,62.82
2023-01-27T05:28:31.660Z,63.50
2023-01-27T05:31:02.032Z,63.52
2023-01-27T05:33:28.688Z,63.19
2023-01-27T05:35:57.911Z,63.51
2023-01-27T05:38:24.601Z,63.18
2023-01-27T05:40:54.572Z,63.79
2023-01-27T05:43:21.206Z,63.30
2023-01-27T05:45:48.166Z,63.35
2023-01-27T05:48:14.864Z,62.82
2023-01-27T05:50:41.512Z,62.85
2023-01-27T05:53:08.229Z,62.98
2023-01-27T05:55:34.834Z,62.57
2023-01-27T05:58:01.457Z,62.66
2023-01-27T06:00:28.079Z,62.76
2023-01-27T06:02:54.784Z,62.94
2023-01-27T06:05:21.429Z,62.94
2023-01-27T06:07:48.103Z,62.45
2023-01-27T06:10:14.775Z,62.51
2023-01-27T06:12:41.432Z,62.24
2023-01-27T06:15:08.494Z,62.00
2023-01-27T06:17:35.251Z,61.79
2023-01-27T06:20:01.904Z,61.49
2023-01-27T06:22:28.608Z,61.02
2023-01-27T06:24:55.258Z,60.88
2023-01-27T06:27:21.884Z,60.63
2023-01-27T06:29:48.508Z,60.32
2023-01-27T06:32:16.563Z,60.17
2023-01-27T06:34:43.180Z,60.25
2023-01-27T06:37:10.192Z,60.30
2023-01-27T06:39:36.830Z,60.31
2023-01-27T06:42:04.818Z,60.54
2023-01-27T06:44:31.425Z,60.28
2023-01-27T06:46:58.095Z,60.53
2023-01-27T06:49:24.793Z,60.27
2023-01-27T06:51:51.501Z,60.17
2023-01-27T06:54:19.680Z,59.99
2023-01-27T06:56:46.656Z,60.13
2023-01-27T06:59:13.270Z,60.10
2023-01-27T07:01:40.042Z,59.84
2023-01-27T07:04:06.722Z,59.71
2023-01-27T07:06:33.393Z,59.63
2023-01-27T07:08:59.973Z,59.42
2023-01-27T07:11:26.649Z,59.47
2023-01-27T07:13:53.335Z,59.63
2023-01-27T07:16:20.102Z,59.54
2023-01-27T07:18:46.750Z,59.54
2023-01-27T07:21:13.403Z,59.40
2023-01-27T07:23:42.315Z,59.63
2023-01-27T07:26:23.251Z,59.29
2023-01-27T07:28:51.120Z,59.32
2023-01-27T07:31:17.860Z,59.16
2023-01-27T07:33:44.905Z,59.22
2023-01-27T07:36:11.602Z,59.24
2023-01-27T07:38:39.054Z,59.06
2023-01-27T07:41:06.569Z,58.73
2023-01-27T07:43:33.850Z,58.92
2023-01-27T07:46:00.873Z,59.04
2023-01-27T07:48:27.680Z,59.10
2023-01-27T07:50:54.438Z,59.15
2023-01-27T07:53:21.075Z,58.93
2023-01-27T07:55:47.753Z,59.08
2023-01-27T07:58:14.496Z,58.81
2023-01-27T08:00:41.266Z,58.91
2023-01-27T08:03:08.427Z,58.84
2023-01-27T08:05:35.335Z,58.48
2023-01-27T08:08:04.518Z,58.18
2023-01-27T08:10:31.797Z,58.08
2023-01-27T08:12:58.557Z,57.75
2023-01-27T08:15:25.233Z,57.81
2023-01-27T08:17:55.775Z,57.80
2023-01-27T08:20:24.195Z,58.67
2023-01-27T08:22:50.847Z,68.12
2023-01-27T08:25:17.517Z,63.55
2023-01-27T08:27:44.369Z,57.29
2023-01-27T08:30:11.695Z,61.54
2023-01-27T08:32:38.576Z,59.02
2023-01-27T08:35:05.360Z,58.16
2023-01-27T08:37:31.938Z,55.94
2023-01-27T08:39:59.967Z,56.22
2023-01-27T08:42:26.625Z,57.49
2023-01-27T08:44:53.319Z,58.62
2023-01-27T08:47:19.968Z,58.11
2023-01-27T08:49:47.950Z,55.24
2023-01-27T08:52:14.568Z,55.36
2023-01-27T08:54:41.338Z,56.14
2023-01-27T08:57:08.075Z,54.56
2023-01-27T08:59:34.710Z,54.51
2023-01-27T09:02:01.314Z,54.77
2023-01-27T09:04:30.211Z,58.61
2023-01-27T09:06:56.944Z,53.97
2023-01-27T09:09:23.684Z,53.92
2023-01-27T09:11:50.321Z,54.13
2023-01-27T09:14:17.010Z,53.07
2023-01-27T09:16:43.647Z,53.24
2023-01-27T09:19:10.408Z,53.23
2023-01-27T09:21:37.014Z,53.05
2023-01-27T09:24:03.795Z,52.72
2023-01-27T09:26:30.436Z,53.34
2023-01-27T09:28:57.142Z,52.92
2023-01-27T09:31:23.977Z,52.49
2023-01-27T09:33:50.797Z,53.01
2023-01-27T09:36:19.007Z,52.60
2023-01-27T09:38:52.200Z,52.67
2023-01-27T09:41:37.659Z,52.40
2023-01-27T09:44:15.726Z,52.46
2023-01-27T09:46:42.533Z,52.72
2023-01-27T09:49:12.334Z,52.67
2023-01-27T09:51:41.780Z,52.43
2023-01-27T09:54:23.433Z,52.25
2023-01-27T09:56:53.614Z,52.68
2023-01-27T09:59:30.013Z,51.92
2023-01-27T10:02:35.284Z,51.68
2023-01-27T10:05:20.317Z,51.33
2023-01-27T10:07:55.975Z,51.28
2023-01-27T10:10:41.038Z,51.69
2023-01-27T10:13:10.495Z,51.84
2023-01-27T10:15:45.173Z,51.64
2023-01-27T10:18:11.857Z,51.05
2023-01-27T10:20:44.749Z,50.89
2023-01-27T10:23:25.519Z,50.92
2023-01-27T10:25:52.554Z,51.10
2023-01-27T10:28:22.628Z,50.73
2023-01-27T10:30:56.011Z,50.65
2023-01-27T10:33:28.653Z,50.92
2023-01-27T10:35:59.559Z,51.16
2023-01-27T10:38:34.955Z,51.07
2023-01-27T10:41:04.447Z,51.19
2023-01-27T10:43:39.350Z,51.19
2023-01-27T10:46:16.680Z,51.15
2023-01-27T10:48:49.885Z,50.77
2023-01-27T10:51:31.348Z,51.00
2023-01-27T10:54:12.444Z,50.62
2023-01-27T10:56:45.520Z,50.42
2023-01-27T10:59:23.919Z,50.48
2023-01-27T11:01:53.327Z,49.95
2023-01-27T11:04:26.105Z,50.35
2023-01-27T11:06:54.145Z,50.52
2023-01-27T11:09:22.964Z,50.09
2023-01-27T11:11:51.367Z,49.87
2023-01-27T11:14:32.542Z,50.43
2023-01-27T11:17:15.866Z,50.43
2023-01-27T11:19:50.988Z,49.90
2023-01-27T11:22:20.886Z,50.16
2023-01-27T11:24:50.051Z,49.93
2023-01-27T11:27:27.082Z,49.76
2023-01-27T11:30:04.325Z,49.68
2023-01-27T11:32:39.918Z,49.87
2023-01-27T11:35:10.331Z,49.72
2023-01-27T11:37:44.206Z,49.92
2023-01-27T11:40:16.323Z,49.62
2023-01-27T11:42:43.359Z,49.74
2023-01-27T11:45:16.995Z,49.67
2023-01-27T11:47:44.481Z,49.47
2023-01-27T11:50:15.634Z,48.95
2023-01-27T11:52:43.231Z,49.47
2023-01-27T11:55:16.837Z,49.13
2023-01-27T11:57:46.675Z,49.44
2023-01-27T12:00:13.732Z,49.83
2023-01-27T12:02:46.250Z,49.72
2023-01-27T12:05:14.567Z,49.72
2023-01-27T12:07:50.157Z,49.66
2023-01-27T12:10:24.686Z,49.21
2023-01-27T12:12:58.821Z,49.58
2023-01-27T12:15:29.614Z,49.16
2023-01-27T12:17:59.577Z,49.77
2023-01-27T12:20:35.075Z,49.21
2023-01-27T12:23:14.322Z,48.52
2023-01-27T12:25:49.623Z,48.42
2023-01-27T12:28:37.517Z,48.43
2023-01-27T12:31:12.150Z,48.38
2023-01-27T12:33:41.628Z,48.43
2023-01-27T12:36:11.325Z,48.09
2023-01-27T12:38:38.071Z,48.16
2023-01-27T12:41:06.250Z,48.55
2023-01-27T12:43:50.047Z,48.14
2023-01-27T12:46:22.796Z,48.94
2023-01-27T12:48:53.716Z,50.64
2023-01-27T12:51:22.167Z,52.11
2023-01-27T12:53:49.846Z,53.26
2023-01-27T12:56:22.090Z,53.36
2023-01-27T12:58:54.785Z,53.22
2023-01-27T13:01:30.276Z,53.28
2023-01-27T13:04:01.149Z,53.05
2023-01-27T13:06:33.965Z,52.54
2023-01-27T13:09:01.728Z,52.77
2023-01-27T13:11:34.564Z,52.91
2023-01-27T13:14:01.253Z,52.81
2023-01-27T13:16:29.435Z,52.42
2023-01-27T13:18:57.853Z,52.41
2023-01-27T13:21:26.956Z,52.52
2023-01-27T13:23:54.417Z,52.59
2023-01-27T13:26:33.632Z,52.93
2023-01-27T13:29:00.449Z,53.10
2023-01-27T13:31:34.202Z,53.59
2023-01-27T13:34:05.414Z,53.77
2023-01-27T13:36:43.522Z,54.44
2023-01-27T13:39:16.261Z,54.96
2023-01-27T13:41:45.951Z,55.26
2023-01-27T13:44:21.628Z,55.70
2023-01-27T13:46:49.805Z,56.19
2023-01-27T13:49:32.071Z,56.12
2023-01-27T13:51:58.751Z,57.17
2023-01-27T13:54:25.480Z,57.50
2023-01-27T13:56:58.348Z,57.39
2023-01-27T13:59:27.986Z,57.34
2023-01-27T14:01:54.736Z,57.10
2023-01-27T14:04:32.681Z,56.77
2023-01-27T14:07:15.104Z,56.31
2023-01-27T14:09:49.401Z,55.83
2023-01-27T14:12:24.855Z,56.54
2023-01-27T14:15:08.673Z,57.25
2023-01-27T14:17:35.488Z,58.39
2023-01-27T14:20:07.943Z,59.02
2023-01-27T14:22:44.029Z,59.21
2023-01-27T14:25:32.613Z,59.70
2023-01-27T14:28:10.920Z,59.55
2023-01-27T14:30:45.084Z,59.56
2023-01-27T14:33:17.607Z,59.69
2023-01-27T14:35:50.030Z,59.84
2023-01-27T14:38:28.687Z,59.89
2023-01-27T14:41:01.135Z,60.26
2023-01-27T14:43:30.705Z,59.91
2023-01-27T14:46:08.951Z,59.95
2023-01-27T14:48:38.418Z,59.92
2023-01-27T14:51:12.549Z,59.58
2023-01-27T14:53:57.371Z,59.75
2023-01-27T14:56:32.096Z,60.34
2023-01-27T14:59:16.623Z,59.95
2023-01-27T15:01:49.232Z,59.44
2023-01-27T15:04:19.001Z,58.77
2023-01-27T15:07:09.260Z,58.77
2023-01-27T15:09:40.872Z,58.90
2023-01-27T15:12:25.732Z,59.09
2023-01-27T15:14:54.380Z,59.34
2023-01-27T15:17:20.984Z,59.66
2023-01-27T15:20:06.584Z,59.92
2023-01-27T15:22:39.829Z,60.08
2023-01-27T15:25:29.895Z,60.67
2023-01-27T15:27:57.594Z,60.82
2023-01-27T15:30:26.488Z,60.83
2023-01-27T15:32:53.482Z,61.30
2023-01-27T15:35:28.026Z,61.23
2023-01-27T15:38:08.556Z,61.74
2023-01-27T15:40:53.925Z,62.04
2023-01-27T15:43:23.399Z,62.25
2023-01-27T15:45:54.349Z,61.89
2023-01-27T15:48:28.526Z,61.83
2023-01-27T15:50:59.464Z,61.73
2023-01-27T15:53:36.192Z,62.22
2023-01-27T15:56:03.760Z,62.22
2023-01-27T15:58:36.396Z,62.12
2023-01-27T16:01:05.353Z,62.08
2023-01-27T16:03:35.237Z,62.12
2023-01-27T16:06:12.206Z,61.96
2023-01-27T16:08:41.569Z,61.71
2023-01-27T16:11:26.566Z,61.82
2023-01-27T16:14:13.658Z,61.60
2023-01-27T16:16:41.796Z,61.57
2023-01-27T16:19:11.345Z,61.90
2023-01-27T16:21:40.844Z,61.50
2023-01-27T16:24:27.770Z,61.35
2023-01-27T16:27:06.700Z,61.07
2023-01-27T16:29:46.267Z,61.07
2023-01-27T16:32:20.692Z,61.21
2023-01-27T16:34:56.125Z,61.27
2023-01-27T16:37:25.075Z,61.37
2023-01-27T16:39:54.874Z,61.79
2023-01-27T16:42:28.465Z,62.16
2023-01-27T16:44:57.306Z,62.58
2023-01-27T16:47:26.347Z,62.90
2023-01-27T16:49:56.059Z,62.98
2023-01-27T16:52:40.845Z,62.83
2023-01-27T16:55:19.397Z,62.73
2023-01-27T16:57:46.042Z,62.96
2023-01-27T17:00:23.180Z,62.78
2023-01-27T17:02:51.515Z,62.60
2023-01-27T17:05:19.337Z,62.98
2023-01-27T17:08:03.972Z,62.83
2023-01-27T17:10:34.807Z,62.75
2023-01-27T17:13:03.573Z,62.46
2023-01-27T17:15:37.930Z,62.17
2023-01-27T17:18:09.628Z,61.54
2023-01-27T17:20:38.343Z,61.50
2023-01-27T17:23:05.817Z,61.26
2023-01-27T17:25:34.883Z,61.69
2023-01-27T17:28:03.374Z,61.90
2023-01-27T17:30:34.878Z,61.95
2023-01-27T17:33:02.809Z,61.86
2023-01-27T17:35:36.975Z,61.78
2023-01-27T17:38:07.741Z,61.70
2023-01-27T17:40:38.652Z,61.36
2023-01-27T17:43:24.101Z,60.69
2023-01-27T17:46:01.728Z,59.57
2023-01-27T17:48:28.387Z,59.22
2023-01-27T17:50:55.014Z,58.91
2023-01-27T17:53:24.785Z,58.86
2023-01-27T17:55:52.312Z,59.31
2023-01-27T17:58:22.625Z,59.86
2023-01-27T18:00:49.314Z,59.82
2023-01-27T18:03:20.151Z,60.29
2023-01-27T18:05:48.629Z,60.68
2023-01-27T18:08:15.251Z,60.76
2023-01-27T18:10:45.840Z,61.46
2023-01-27T18:13:14.072Z,61.91
2023-01-27T18:15:42.635Z,61.84
2023-01-27T18:18:27.675Z,61.93
2023-01-27T18:20:57.138Z,62.28
2023-01-27T18:23:28.493Z,62.62
2023-01-27T18:26:02.168Z,62.79
2023-01-27T18:28:32.549Z,62.98
2023-01-27T18:30:59.354Z,63.19
2023-01-27T18:33:25.986Z,62.99
2023-01-27T18:35:57.120Z,63.03
2023-01-27T18:38:27.668Z,63.03
2023-01-27T18:40:55.752Z,62.99
2023-01-27T18:43:22.392Z,63.40
2023-01-27T18:45:50.480Z,63.42
2023-01-27T18:48:17.589Z,63.61
2023-01-27T18:50:45.462Z,63.62
2023-01-27T18:53:16.572Z,63.44
2023-01-27T18:55:43.496Z,63.21
2023-01-27T18:58:13.282Z,63.13
2023-01-27T19:00:48.159Z,63.35
2023-01-27T19:03:17.871Z,63.14
2023-01-27T19:05:44.592Z,63.13
2023-01-27T19:08:15.586Z,63.46
2023-01-27T19:10:42.295Z,63.42
2023-01-27T19:13:09.646Z,63.69
2023-01-27T19:15:41.567Z,63.31
2023-01-27T19:18:24.985Z,62.46
2023-01-27T19:20:53.182Z,62.76
2023-01-27T19:23:20.166Z,62.64
2023-01-27T19:25:48.115Z,62.67
2023-01-27T19:28:21.267Z,62.42
2023-01-27T19:30:47.935Z,62.36
2023-01-27T19:33:19.069Z,62.44
2023-01-27T19:35:48.016Z,62.86
2023-01-27T19:38:14.639Z,62.41
2023-01-27T19:40:41.683Z,62.20
2023-01-27T19:43:10.266Z,61.81
2023-01-27T19:45:36.961Z,62.26
2023-01-27T19:48:03.723Z,61.98
2023-01-27T19:50:30.910Z,62.26
2023-01-27T19:52:58.358Z,62.05
2023-01-27T19:55:25.599Z,61.55
2023-01-27T19:57:52.991Z,61.46
2023-01-27T20:00:27.486Z,61.97
2023-01-27T20:02:54.573Z,61.84
2023-01-27T20:05:22.324Z,61.76
2023-01-27T20:07:49.325Z,61.43
2023-01-27T20:10:23.721Z,61.27
2023-01-27T20:12:54.566Z,61.20
2023-01-27T20:15:24.257Z,60.95
2023-01-27T20:17:54.529Z,61.12
2023-01-27T20:20:21.946Z,60.88
2023-01-27T20:22:48.723Z,60.90
2023-01-27T20:25:16.510Z,60.91
2023-01-27T20:27:44.066Z,61.44
2023-01-27T20:30:21.624Z,61.72
2023-01-27T20:32:48.396Z,61.86
2023-01-27T20:35:16.500Z,61.78
2023-01-27T20:37:43.654Z,61.41
2023-01-27T20:40:12.745Z,61.43
2023-01-27T20:42:39.411Z,61.25
2023-01-27T20:45:06.630Z,61.68
2023-01-27T20:47:33.502Z,61.24
2023-01-27T20:50:00.148Z,60.88
2023-01-27T20:52:26.989Z,60.39
2023-01-27T20:54:53.615Z,60.15
2023-01-27T20:57:22.165Z,60.21
2023-01-27T20:59:49.047Z,60.47
2023-01-27T21:02:16.462Z,60.65
2023-01-27T21:04:43.107Z,60.73
2023-01-27T21:07:09.751Z,60.56
2023-01-27T21:09:36.484Z,60.00
2023-01-27T21:12:03.228Z,60.23
2023-01-27T21:14:29.921Z,59.47
2023-01-27T21:16:56.698Z,59.05
2023-01-27T21:19:23.461Z,58.43
2023-01-27T21:21:50.181Z,58.46
2023-01-27T21:24:16.824Z,59.39
2023-01-27T21:26:43.497Z,59.98
2023-01-27T21:29:11.457Z,60.61
2023-01-27T21:31:40.159Z,59.58
2023-01-27T21:34:06.816Z,59.61
2023-01-27T21:36:33.409Z,60.47
2023-01-27T21:39:02.390Z,60.07
2023-01-27T21:41:47.736Z,59.83
2023-01-27T21:44:40.690Z,59.50
2023-01-27T21:47:08.943Z,60.26
2023-01-27T21:49:56.332Z,60.00
2023-01-27T21:52:23.865Z,60.51
2023-01-27T21:54:50.503Z,60.85
2023-01-27T21:57:19.157Z,60.75
2023-01-27T21:59:45.997Z,61.08
2023-01-27T22:02:13.579Z,61.03
2023-01-27T22:04:41.066Z,60.54
2023-01-27T22:07:10.009Z,59.97
2023-01-27T22:09:37.296Z,59.71
2023-01-27T22:12:08.458Z,59.37
2023-01-27T22:14:35.230Z,59.19
2023-01-27T22:17:02.027Z,58.57
2023-01-27T22:19:29.385Z,58.83
2023-01-27T22:21:56.089Z,58.95
2023-01-27T22:24:22.766Z,58.89
2023-01-27T22:26:49.458Z,59.12
2023-01-27T22:29:16.162Z,59.06
2023-01-27T22:31:42.772Z,58.97
2023-01-27T22:34:09.579Z,58.35
2023-01-27T22:36:36.631Z,59.00
2023-01-27T22:39:04.219Z,57.95
2023-01-27T22:41:31.587Z,57.97
2023-01-27T22:43:58.294Z,57.59
2023-01-27T22:46:24.911Z,57.20
2023-01-27T22:48:51.617Z,57.43
2023-01-27T22:51:18.399Z,57.31
2023-01-27T22:53:46.104Z,57.36
2023-01-27T22:56:12.752Z,57.35
2023-01-27T22:58:39.426Z,57.11
2023-01-27T23:01:06.908Z,57.34
2023-01-27T23:03:33.981Z,57.07
2023-01-27T23:06:04.276Z,56.79
2023-01-27T23:08:32.528Z,57.53
2023-01-27T23:11:01.375Z,57.54
2023-01-27T23:13:28.952Z,57.28
2023-01-27T23:15:55.574Z,57.77
2023-01-27T23:18:22.502Z,57.70
2023-01-27T23:20:49.113Z,57.81
2023-01-27T23:23:16.082Z,58.21
2023-01-27T23:25:46.002Z,58.52
2023-01-27T23:28:13.645Z,58.82
2023-01-27T23:30:44.178Z,58.04
2023-01-27T23:33:11.798Z,57.77
2023-01-27T23:35:38.700Z,58.17
2023-01-27T23:38:10.527Z,58.08
2023-01-27T23:40:40.792Z,57.77
2023-01-27T23:43:07.397Z,57.48
2023-01-27T23:45:34.165Z,57.53
2023-01-27T23:48:00.826Z,57.33
2023-01-27T23:50:27.472Z,57.64
2023-01-27T23:52:54.097Z,57.51
2023-01-27T23:55:20.840Z,57.34
2023-01-27T23:57:47.428Z,57.24
